Time;durP1;ratioP1;P1;durP2;ratioP2;P2;SDS_P1;SDS_P2;PMS_P1;PMS_P2;Temp;Humidity;BMP_temperature;BMP_pressure;BME280_temperature;BME280_humidity;BME280_pressure;Samples;Min_cycle;Max_cycle;Signal;HPM_P1;HPM_P2
2023/08/17 00:02:14;;;;;;;24.38;17.15;;;;;;;;;;5100333;28;20322;-83
2023/08/17 00:04:40;;;;;;;22.38;17.73;;;;;;;;;;5117253;28;20096;-83
2023/08/17 00:07:06;;;;;;;22.15;16.33;;;;;;;;;;5100480;28;20031;-83
2023/08/17 00:09:31;;;;;;;20.58;14.80;;;;;;;;;;5117092;28;20107;-83
2023/08/17 00:11:57;;;;;;;21.83;15.50;;;;;;;;;;5117253;28;20045;-83
2023/08/17 00:14:22;;;;;;;24.35;15.93;;;;;;;;;;5118578;28;20114;-84
2023/08/17 00:16:49;;;;;;;23.95;15.40;;;;;;;;;;5118292;28;20028;-83
2023/08/17 00:19:15;;;;;;;20.77;16.58;;;;;;;;;;5135004;27;20024;-84
2023/08/17 00:21:46;;;;;;;25.75;15.95;;;;;;;;;;5099484;28;20404;-83
2023/08/17 00:24:12;;;;;;;20.13;15.27;;;;;;;;;;5117277;27;20032;-84
2023/08/17 00:26:40;;;;;;;23.17;16.10;;;;;;;;;;5099806;28;20107;-84
2023/08/17 00:29:05;;;;;;;22.25;15.52;;;;;;;;;;5133608;27;20598;-84
2023/08/17 00:31:31;;;;;;;26.77;15.95;;;;;;;;;;5082731;28;20115;-84
2023/08/17 00:33:56;;;;;;;23.60;16.02;;;;;;;;;;5099847;28;20372;-83
2023/08/17 00:36:24;;;;;;;19.30;14.75;;;;;;;;;;5116502;28;20027;-83
2023/08/17 00:38:49;;;;;;;24.27;15.70;;;;;;;;;;5083385;28;20034;-83
2023/08/17 00:41:15;;;;;;;19.33;15.27;;;;;;;;;;5099697;28;20028;-83
2023/08/17 00:43:40;;;;;;;19.45;15.40;;;;;;;;;;5099441;28;20063;-83
2023/08/17 00:46:08;;;;;;;24.52;15.45;;;;;;;;;;5116637;28;20035;-83
2023/08/17 00:48:34;;;;;;;23.20;16.77;;;;;;;;;;5082973;28;20027;-84
2023/08/17 00:51:04;;;;;;;20.88;15.57;;;;;;;;;;5099138;28;20468;-84
2023/08/17 00:53:38;;;;;;;22.48;15.90;;;;;;;;;;5134756;27;20114;-85
2023/08/17 00:56:07;;;;;;;26.00;16.48;;;;;;;;;;5134325;27;20368;-85
2023/08/17 00:58:32;;;;;;;24.67;17.00;;;;;;;;;;5099182;28;20023;-85
2023/08/17 01:01:01;;;;;;;23.42;17.13;;;;;;;;;;5150750;27;20441;-85
2023/08/17 01:03:31;;;;;;;26.52;16.67;;;;;;;;;;5082022;28;20388;-84
2023/08/17 01:05:58;;;;;;;23.02;16.73;;;;;;;;;;5116742;27;20027;-85
2023/08/17 01:09:17;;;;;;;23.92;17.13;;;;;;;;;;5099294;28;20028;-83
2023/08/17 01:12:24;;;;;;;23.77;17.00;;;;;;;;;;5094522;27;20047;-84
2023/08/17 01:15:00;;;;;;;24.98;17.77;;;;;;;;;;5116545;28;20134;-83
2023/08/17 01:17:31;;;;;;;27.80;18.27;;;;;;;;;;5115678;28;20050;-83
2023/08/17 01:19:57;;;;;;;26.58;18.70;;;;;;;;;;5133352;27;20024;-83
2023/08/17 01:22:23;;;;;;;24.27;17.92;;;;;;;;;;5133186;27;20031;-83
2023/08/17 01:24:48;;;;;;;22.83;18.13;;;;;;;;;;5081936;28;20035;-84
2023/08/17 01:27:14;;;;;;;23.75;17.60;;;;;;;;;;5081690;28;20020;-84
2023/08/17 01:30:21;;;;;;;24.52;17.35;;;;;;;;;;5115994;28;20024;-84
2023/08/17 01:33:03;;;;;;;23.08;17.20;;;;;;;;;;5102065;28;20426;-84
2023/08/17 01:36:05;;;;;;;23.55;17.13;;;;;;;;;;5115363;28;20118;-84
2023/08/17 01:38:31;;;;;;;26.80;17.77;;;;;;;;;;5032245;28;20040;-84
2023/08/17 01:40:56;;;;;;;30.65;17.67;;;;;;;;;;5098425;28;20124;-84
2023/08/17 01:43:22;;;;;;;23.42;17.50;;;;;;;;;;5098456;28;20114;-84
2023/08/17 01:45:47;;;;;;;28.27;18.17;;;;;;;;;;5098160;28;20542;-84
2023/08/17 01:51:19;;;;;;;23.80;18.30;;;;;;;;;;5084717;28;20041;-84
2023/08/17 01:53:45;;;;;;;24.33;19.05;;;;;;;;;;5115272;28;20028;-84
2023/08/17 01:56:10;;;;;;;25.33;17.77;;;;;;;;;;5115182;28;20035;-84
2023/08/17 01:58:36;;;;;;;25.63;18.60;;;;;;;;;;5115492;28;20126;-84
2023/08/17 02:01:02;;;;;;;24.60;18.70;;;;;;;;;;5081455;28;20360;-85
2023/08/17 02:03:28;;;;;;;28.10;17.70;;;;;;;;;;5114508;28;20420;-84
2023/08/17 02:05:56;;;;;;;28.02;18.90;;;;;;;;;;5115090;28;20030;-83
2023/08/17 02:08:21;;;;;;;35.00;18.30;;;;;;;;;;5098507;28;20027;-84
2023/08/17 02:10:49;;;;;;;25.58;18.77;;;;;;;;;;5149216;27;20080;-84
2023/08/17 02:13:43;;;;;;;24.45;17.90;;;;;;;;;;5115101;28;20089;-85
2023/08/17 02:16:08;;;;;;;32.47;19.95;;;;;;;;;;5091477;28;20438;-83
2023/08/17 02:18:34;;;;;;;24.88;19.52;;;;;;;;;;5114503;28;20028;-83
2023/08/17 02:21:54;;;;;;;24.98;19.13;;;;;;;;;;5114441;28;20024;-85
2023/08/17 02:24:19;;;;;;;30.17;18.17;;;;;;;;;;5084278;28;20146;-85
2023/08/17 02:26:45;;;;;;;30.70;18.63;;;;;;;;;;5097382;28;20102;-84
2023/08/17 02:29:10;;;;;;;24.88;18.77;;;;;;;;;;5097179;28;20096;-84
2023/08/17 02:31:35;;;;;;;23.80;19.48;;;;;;;;;;5097533;28;20028;-85
2023/08/17 02:34:04;;;;;;;28.48;19.60;;;;;;;;;;5097060;28;20027;-83
2023/08/17 02:36:31;;;;;;;32.87;19.87;;;;;;;;;;5114327;28;20056;-84
2023/08/17 02:38:56;;;;;;;26.88;19.73;;;;;;;;;;5131433;27;20032;-84
2023/08/17 02:41:21;;;;;;;28.52;19.98;;;;;;;;;;5114153;28;20079;-84
2023/08/17 02:43:47;;;;;;;33.05;19.02;;;;;;;;;;5097061;28;20036;-83
2023/08/17 02:46:12;;;;;;;30.20;20.75;;;;;;;;;;5131130;27;20467;-83
2023/08/17 02:48:38;;;;;;;30.15;20.42;;;;;;;;;;5114076;28;20032;-85
2023/08/17 02:51:04;;;;;;;29.83;20.70;;;;;;;;;;5113962;28;20128;-85
2023/08/17 02:53:29;;;;;;;34.33;19.98;;;;;;;;;;5113796;28;20128;-85
2023/08/17 02:55:58;;;;;;;28.73;20.13;;;;;;;;;;5079799;28;20480;-85
2023/08/17 02:58:24;;;;;;;25.03;19.63;;;;;;;;;;5131108;27;20437;-85
2023/08/17 03:04:24;;;;;;;28.80;19.63;;;;;;;;;;4993426;28;20031;-86
2023/08/17 03:06:52;;;;;;;33.08;19.23;;;;;;;;;;4998620;28;20095;-85
2023/08/17 03:09:18;;;;;;;29.95;20.75;;;;;;;;;;5136111;27;20044;-85
2023/08/17 03:11:43;;;;;;;29.40;19.30;;;;;;;;;;5113577;28;20028;-85
2023/08/17 03:14:08;;;;;;;32.85;19.40;;;;;;;;;;5096697;28;20031;-86
2023/08/17 03:16:34;;;;;;;30.02;19.85;;;;;;;;;;5113499;28;20337;-85
2023/08/17 03:18:59;;;;;;;27.17;18.67;;;;;;;;;;5096810;28;20443;-84
2023/08/17 03:21:25;;;;;;;22.73;18.67;;;;;;;;;;5114838;28;20035;-86
2023/08/17 03:26:43;;;;;;;25.60;17.98;;;;;;;;;;5092761;28;20530;-83
2023/08/17 03:29:09;;;;;;;28.48;16.75;;;;;;;;;;5092041;28;20058;-84
2023/08/17 03:31:35;;;;;;;24.30;15.50;;;;;;;;;;5108239;28;20457;-83
2023/08/17 03:34:01;;;;;;;22.98;14.40;;;;;;;;;;5075028;28;20071;-84
2023/08/17 03:36:26;;;;;;;24.50;14.85;;;;;;;;;;5091897;28;20128;-83
2023/08/17 03:38:51;;;;;;;21.25;14.07;;;;;;;;;;5075421;28;20024;-82
2023/08/17 03:41:17;;;;;;;20.15;14.57;;;;;;;;;;5108958;28;20033;-83
2023/08/17 03:43:43;;;;;;;23.35;13.55;;;;;;;;;;5075483;28;20046;-84
2023/08/17 03:46:09;;;;;;;21.42;12.98;;;;;;;;;;5091742;28;20068;-83
2023/08/17 03:48:34;;;;;;;21.98;13.25;;;;;;;;;;5092062;28;20131;-83
2023/08/17 03:51:01;;;;;;;22.63;13.45;;;;;;;;;;5058396;28;20032;-83
2023/08/17 03:53:26;;;;;;;16.83;11.27;;;;;;;;;;5075382;28;20122;-84
2023/08/17 03:55:52;;;;;;;18.45;11.77;;;;;;;;;;5092140;28;20127;-84
2023/08/17 03:58:17;;;;;;;17.55;11.07;;;;;;;;;;5144522;27;20039;-83
2023/08/17 04:00:55;;;;;;;18.70;11.18;;;;;;;;;;5113607;28;20066;-84
2023/08/17 04:03:23;;;;;;;22.42;10.85;;;;;;;;;;5114434;28;20031;-85
2023/08/17 04:05:48;;;;;;;16.45;10.38;;;;;;;;;;5113330;28;20037;-85
2023/08/17 04:08:14;;;;;;;16.13;10.10;;;;;;;;;;5096321;28;20039;-85
2023/08/17 04:10:39;;;;;;;22.33;10.60;;;;;;;;;;5112990;28;20035;-85
2023/08/17 04:13:05;;;;;;;17.88;10.60;;;;;;;;;;5079517;28;20035;-84
2023/08/17 04:15:30;;;;;;;16.52;9.23;;;;;;;;;;5095710;28;20042;-84
2023/08/17 04:17:55;;;;;;;15.13;10.48;;;;;;;;;;5114097;28;20027;-84
2023/08/17 04:20:22;;;;;;;17.25;10.30;;;;;;;;;;5112870;28;20060;-84
2023/08/17 04:22:48;;;;;;;14.90;9.75;;;;;;;;;;5113034;28;20072;-84
2023/08/17 04:25:13;;;;;;;17.27;9.65;;;;;;;;;;5112994;28;20069;-84
2023/08/17 04:27:39;;;;;;;20.92;10.32;;;;;;;;;;5112717;28;20055;-85
2023/08/17 04:30:05;;;;;;;17.05;10.52;;;;;;;;;;5095934;28;20720;-84
2023/08/17 04:32:31;;;;;;;16.27;10.20;;;;;;;;;;5130628;27;20035;-84
2023/08/17 04:34:56;;;;;;;21.88;10.85;;;;;;;;;;5096006;28;20032;-83
2023/08/17 04:37:21;;;;;;;16.48;11.52;;;;;;;;;;5079218;28;20039;-85
2023/08/17 04:39:48;;;;;;;18.38;11.35;;;;;;;;;;5112949;28;20038;-84
2023/08/17 04:42:14;;;;;;;24.77;11.55;;;;;;;;;;5096034;28;20024;-84
2023/08/17 04:44:39;;;;;;;22.85;11.60;;;;;;;;;;5098633;28;20090;-85
2023/08/17 04:47:05;;;;;;;25.10;11.27;;;;;;;;;;5099524;28;20031;-85
2023/08/17 04:49:30;;;;;;;19.98;11.18;;;;;;;;;;5082498;28;20148;-85
2023/08/17 04:51:56;;;;;;;15.75;11.43;;;;;;;;;;5117828;28;20024;-85
2023/08/17 04:54:21;;;;;;;15.23;11.30;;;;;;;;;;5116278;28;20110;-85
2023/08/17 04:56:47;;;;;;;17.40;11.85;;;;;;;;;;5116013;28;20024;-85
2023/08/17 04:59:12;;;;;;;16.90;11.82;;;;;;;;;;5117348;28;20053;-85
2023/08/17 05:01:38;;;;;;;18.73;12.75;;;;;;;;;;5099133;28;20350;-85
2023/08/17 05:04:04;;;;;;;17.98;12.55;;;;;;;;;;5116221;28;20053;-85
2023/08/17 05:06:29;;;;;;;20.95;12.13;;;;;;;;;;5117603;28;20031;-84
2023/08/17 05:08:55;;;;;;;19.52;12.65;;;;;;;;;;5116324;28;20382;-85
2023/08/17 05:11:21;;;;;;;28.08;13.13;;;;;;;;;;5115790;28;20042;-85
2023/08/17 05:13:47;;;;;;;28.10;12.93;;;;;;;;;;5098819;28;20058;-85
2023/08/17 05:16:12;;;;;;;20.67;13.32;;;;;;;;;;5098917;28;20024;-85
2023/08/17 05:18:38;;;;;;;22.77;12.57;;;;;;;;;;5116076;28;20046;-85
2023/08/17 05:21:06;;;;;;;20.33;13.13;;;;;;;;;;5115942;28;20036;-85
2023/08/17 05:23:32;;;;;;;17.73;12.57;;;;;;;;;;5082165;28;20020;-83
2023/08/17 05:25:57;;;;;;;17.67;12.60;;;;;;;;;;5115233;28;20028;-84
2023/08/17 05:28:23;;;;;;;16.23;12.32;;;;;;;;;;5115198;28;20035;-84
2023/08/17 05:30:48;;;;;;;16.88;12.20;;;;;;;;;;5115668;28;20024;-84
2023/08/17 05:33:15;;;;;;;23.65;12.57;;;;;;;;;;5115568;28;20023;-84
2023/08/17 05:35:42;;;;;;;22.73;12.85;;;;;;;;;;5115446;28;20461;-83
2023/08/17 05:38:08;;;;;;;19.63;13.13;;;;;;;;;;5098929;28;20028;-85
2023/08/17 05:40:33;;;;;;;22.52;14.02;;;;;;;;;;5115296;28;20028;-85
2023/08/17 05:42:59;;;;;;;22.33;13.82;;;;;;;;;;5098502;28;20031;-83
2023/08/17 05:45:24;;;;;;;22.15;13.55;;;;;;;;;;5149730;27;20031;-83
2023/08/17 05:47:49;;;;;;;30.17;12.90;;;;;;;;;;5081421;28;20047;-83
2023/08/17 05:50:15;;;;;;;19.52;13.13;;;;;;;;;;5098331;28;20035;-84
2023/08/17 05:52:41;;;;;;;28.52;16.48;;;;;;;;;;5098181;28;20019;-84
2023/08/17 05:55:06;;;;;;;23.33;12.43;;;;;;;;;;5132152;27;20106;-84
2023/08/17 05:57:32;;;;;;;21.38;11.38;;;;;;;;;;5098319;28;20073;-83
2023/08/17 05:59:57;;;;;;;23.35;11.07;;;;;;;;;;5098507;28;20472;-84
2023/08/17 06:02:23;;;;;;;19.17;11.70;;;;;;;;;;5115081;28;20028;-84
2023/08/17 06:04:48;;;;;;;15.95;11.35;;;;;;;;;;5114940;28;20024;-84
2023/08/17 06:07:14;;;;;;;16.48;11.38;;;;;;;;;;5098132;28;20024;-83
2023/08/17 06:09:39;;;;;;;24.25;11.50;;;;;;;;;;5098092;28;20019;-85
2023/08/17 06:12:05;;;;;;;21.35;11.32;;;;;;;;;;5098032;28;20027;-85
2023/08/17 06:14:31;;;;;;;17.60;12.18;;;;;;;;;;5080801;28;20084;-85
2023/08/17 06:16:56;;;;;;;23.65;13.13;;;;;;;;;;5115053;28;20026;-85
2023/08/17 06:19:21;;;;;;;22.55;13.02;;;;;;;;;;5097815;28;20364;-85
2023/08/17 06:21:47;;;;;;;27.98;13.20;;;;;;;;;;5097683;28;20023;-85
2023/08/17 06:24:13;;;;;;;19.52;13.00;;;;;;;;;;5114352;28;20041;-85
2023/08/17 06:26:38;;;;;;;25.20;13.57;;;;;;;;;;5097807;28;20027;-85
2023/08/17 06:29:03;;;;;;;17.65;13.40;;;;;;;;;;5114389;28;20090;-82
2023/08/17 06:31:30;;;;;;;295.55;32.17;;;;;;;;;;5115792;28;20119;-86
2023/08/17 06:33:55;;;;;;;26.45;14.30;;;;;;;;;;5114732;28;20027;-85
2023/08/17 06:36:21;;;;;;;28.55;16.20;;;;;;;;;;5115754;28;20516;-86
2023/08/17 06:38:46;;;;;;;28.52;14.02;;;;;;;;;;5097582;28;20096;-83
2023/08/17 06:41:11;;;;;;;26.25;15.50;;;;;;;;;;5131391;27;20092;-84
2023/08/17 06:43:37;;;;;;;26.10;14.30;;;;;;;;;;5148876;27;20023;-80
2023/08/17 06:46:02;;;;;;;26.38;14.40;;;;;;;;;;5097613;28;20019;-79
2023/08/17 06:48:28;;;;;;;25.83;14.10;;;;;;;;;;5114412;28;20043;-81
2023/08/17 06:50:54;;;;;;;25.77;15.15;;;;;;;;;;5114122;28;20030;-78
2023/08/17 06:53:19;;;;;;;27.55;15.45;;;;;;;;;;5114720;28;20030;-80
2023/08/17 06:55:44;;;;;;;26.92;15.48;;;;;;;;;;5113758;28;20019;-80
2023/08/17 06:58:10;;;;;;;25.67;15.20;;;;;;;;;;5113906;28;20366;-79
2023/08/17 07:00:35;;;;;;;21.25;14.82;;;;;;;;;;5113800;28;20042;-80
2023/08/17 07:03:01;;;;;;;28.80;15.43;;;;;;;;;;5096764;28;20031;-80
2023/08/17 07:05:26;;;;;;;27.92;15.43;;;;;;;;;;5113495;28;20043;-78
2023/08/17 07:07:52;;;;;;;25.00;14.57;;;;;;;;;;5079848;28;20034;-80
2023/08/17 07:10:18;;;;;;;26.38;14.70;;;;;;;;;;5113346;28;20384;-80
2023/08/17 07:12:44;;;;;;;32.15;15.38;;;;;;;;;;5115450;28;20032;-80
2023/08/17 07:15:10;;;;;;;34.15;21.52;;;;;;;;;;5130694;27;20039;-80
2023/08/17 07:17:36;;;;;;;26.83;15.38;;;;;;;;;;5114619;28;20028;-80
2023/08/17 07:20:03;;;;;;;24.95;15.27;;;;;;;;;;5113632;28;20122;-80
2023/08/17 07:22:28;;;;;;;26.38;15.65;;;;;;;;;;5113663;28;20119;-80
2023/08/17 07:24:54;;;;;;;29.67;15.93;;;;;;;;;;5113477;28;20122;-80
2023/08/17 07:27:19;;;;;;;31.73;16.38;;;;;;;;;;5096519;28;20023;-80
2023/08/17 07:29:44;;;;;;;30.40;16.15;;;;;;;;;;5114708;28;20035;-80
2023/08/17 07:32:10;;;;;;;28.45;16.42;;;;;;;;;;5114300;28;20020;-81
2023/08/17 07:34:36;;;;;;;30.10;17.50;;;;;;;;;;5096400;28;20031;-81
2023/08/17 07:37:03;;;;;;;26.10;16.48;;;;;;;;;;5096607;28;20072;-81
2023/08/17 07:39:29;;;;;;;35.20;17.63;;;;;;;;;;5114432;28;20437;-81
2023/08/17 07:41:54;;;;;;;31.88;17.45;;;;;;;;;;5113650;28;20031;-80
2023/08/17 07:44:20;;;;;;;24.13;10.05;;;;;;;;;;5096463;28;20122;-80
2023/08/17 07:46:45;;;;;;;0.10;0.10;;;;;;;;;;5096506;28;20026;-80
2023/08/17 07:49:10;;;;;;;0.13;0.13;;;;;;;;;;5114570;28;20058;-80
2023/08/17 07:51:36;;;;;;;0.10;0.10;;;;;;;;;;5096053;28;20024;-80
2023/08/17 07:54:01;;;;;;;0.13;0.13;;;;;;;;;;5113252;28;20024;-79
2023/08/17 07:56:27;;;;;;;0.10;0.10;;;;;;;;;;5112996;28;20536;-80
2023/08/17 07:58:55;;;;;;;0.10;0.10;;;;;;;;;;5113311;28;20020;-81
2023/08/17 08:01:21;;;;;;;0.10;0.10;;;;;;;;;;5079299;28;20027;-81
2023/08/17 08:03:46;;;;;;;0.10;0.10;;;;;;;;;;5096106;28;20035;-79
2023/08/17 08:06:12;;;;;;;0.15;0.15;;;;;;;;;;5112925;28;20055;-80
2023/08/17 08:08:38;;;;;;;0.10;0.10;;;;;;;;;;5113737;28;20077;-81
2023/08/17 08:11:04;;;;;;;0.10;0.10;;;;;;;;;;5113419;28;20028;-80
2023/08/17 08:13:30;;;;;;;0.10;0.10;;;;;;;;;;5113347;28;20028;-79
2023/08/17 08:15:55;;;;;;;0.20;0.20;;;;;;;;;;5096329;28;20031;-79
2023/08/17 08:18:21;;;;;;;0.10;0.10;;;;;;;;;;5114168;28;20460;-79
2023/08/17 08:20:46;;;;;;;0.10;0.10;;;;;;;;;;5116629;28;20019;-80
2023/08/17 08:23:12;;;;;;;0.10;0.10;;;;;;;;;;5116877;28;20031;-80
2023/08/17 08:25:37;;;;;;;0.10;0.10;;;;;;;;;;5118123;28;20027;-79
2023/08/17 08:28:03;;;;;;;0.10;0.10;;;;;;;;;;5117817;28;20035;-80
2023/08/17 08:30:28;;;;;;;0.10;0.10;;;;;;;;;;5116794;28;20064;-79
2023/08/17 08:32:57;;;;;;;0.10;0.10;;;;;;;;;;5116696;28;20441;-79
2023/08/17 08:35:24;;;;;;;0.10;0.10;;;;;;;;;;5099959;28;20031;-79
2023/08/17 08:37:50;;;;;;;0.20;0.20;;;;;;;;;;5099989;28;20145;-79
2023/08/17 08:40:15;;;;;;;0.10;0.10;;;;;;;;;;5099627;28;20512;-80
2023/08/17 08:42:40;;;;;;;0.10;0.10;;;;;;;;;;5099676;28;20076;-79
2023/08/17 08:45:06;;;;;;;0.10;0.10;;;;;;;;;;5116358;28;20104;-79
2023/08/17 08:47:32;;;;;;;0.20;0.20;;;;;;;;;;5116627;28;20054;-81
2023/08/17 08:49:59;;;;;;;0.10;0.10;;;;;;;;;;5116344;28;20027;-79
2023/08/17 08:52:28;;;;;;;0.10;0.10;;;;;;;;;;5116703;28;20058;-79
2023/08/17 08:54:53;;;;;;;0.10;0.10;;;;;;;;;;5099513;28;20376;-79
2023/08/17 08:57:19;;;;;;;0.10;0.10;;;;;;;;;;5116182;28;20030;-79
2023/08/17 08:59:46;;;;;;;0.20;0.20;;;;;;;;;;5082431;28;20042;-80
2023/08/17 09:02:17;;;;;;;0.10;0.10;;;;;;;;;;5117531;28;20426;-82
2023/08/17 09:04:44;;;;;;;0.10;0.10;;;;;;;;;;5116134;28;20169;-80
2023/08/17 09:07:11;;;;;;;0.10;0.10;;;;;;;;;;5116217;28;20139;-80
2023/08/17 09:09:37;;;;;;;0.10;0.10;;;;;;;;;;5082318;28;20036;-81
2023/08/17 09:12:03;;;;;;;0.20;0.20;;;;;;;;;;5082570;28;20475;-81
2023/08/17 09:14:28;;;;;;;0.10;0.10;;;;;;;;;;5116057;28;20019;-81
2023/08/17 09:16:54;;;;;;;0.10;0.10;;;;;;;;;;5082118;28;20354;-80
2023/08/17 09:19:19;;;;;;;0.10;0.10;;;;;;;;;;5098896;28;20046;-81
2023/08/17 09:21:44;;;;;;;0.10;0.10;;;;;;;;;;5098950;28;20027;-81
2023/08/17 09:24:10;;;;;;;0.00;0.00;;;;;;;;;;5115964;28;20020;-80
2023/08/17 09:26:36;;;;;;;0.00;0.00;;;;;;;;;;5098583;28;20027;-81
2023/08/17 09:29:05;;;;;;;0.00;0.00;;;;;;;;;;5081437;28;20050;-80
2023/08/17 09:31:31;;;;;;;0.10;0.10;;;;;;;;;;5098848;28;20035;-79
2023/08/17 09:33:56;;;;;;;0.10;0.10;;;;;;;;;;5116504;27;20024;-81
2023/08/17 09:36:22;;;;;;;0.00;0.00;;;;;;;;;;5116745;28;20027;-80
2023/08/17 09:38:49;;;;;;;0.10;0.10;;;;;;;;;;5081605;28;20028;-79
2023/08/17 09:41:15;;;;;;;0.10;0.10;;;;;;;;;;5099193;28;20489;-82
2023/08/17 09:43:40;;;;;;;0.10;0.10;;;;;;;;;;5116370;28;20181;-80
2023/08/17 09:46:07;;;;;;;0.03;0.03;;;;;;;;;;5098384;28;20471;-82
2023/08/17 09:48:32;;;;;;;0.10;0.10;;;;;;;;;;5098472;28;20449;-78
2023/08/17 09:50:59;;;;;;;0.10;0.10;;;;;;;;;;5115626;28;20034;-81
2023/08/17 09:53:25;;;;;;;0.10;0.10;;;;;;;;;;5115418;28;20024;-80
2023/08/17 09:55:50;;;;;;;0.10;0.10;;;;;;;;;;5115286;28;20021;-80
2023/08/17 09:58:16;;;;;;;0.10;0.10;;;;;;;;;;5115350;28;20046;-81
2023/08/17 10:00:46;;;;;;;0.10;0.10;;;;;;;;;;5116296;28;20386;-79
2023/08/17 10:03:13;;;;;;;0.10;0.10;;;;;;;;;;5114821;28;20023;-79
2023/08/17 10:05:40;;;;;;;0.10;0.10;;;;;;;;;;5097747;28;20124;-80
2023/08/17 10:08:06;;;;;;;0.10;0.10;;;;;;;;;;5098891;28;20030;-80
2023/08/17 10:10:34;;;;;;;0.10;0.10;;;;;;;;;;5101327;28;20053;-79
2023/08/17 10:13:16;;;;;;;0.00;0.00;;;;;;;;;;5100067;28;20044;-80
2023/08/17 10:15:48;;;;;;;0.08;0.08;;;;;;;;;;5119222;28;20084;-78
2023/08/17 10:18:45;;;;;;;0.10;0.10;;;;;;;;;;5099173;28;20437;-79
2023/08/17 10:21:13;;;;;;;0.00;0.00;;;;;;;;;;5114957;28;20365;-80
2023/08/17 10:23:39;;;;;;;0.10;0.10;;;;;;;;;;5097920;28;20282;-79
2023/08/17 10:26:04;;;;;;;0.10;0.10;;;;;;;;;;5114658;28;20027;-79
2023/08/17 10:28:30;;;;;;;0.00;0.00;;;;;;;;;;5097570;28;20110;-80
2023/08/17 10:30:56;;;;;;;0.08;0.08;;;;;;;;;;5114230;28;20114;-79
2023/08/17 10:33:21;;;;;;;0.00;0.00;;;;;;;;;;5097545;28;20065;-79
2023/08/17 10:35:47;;;;;;;0.00;0.00;;;;;;;;;;5114623;28;20027;-80
2023/08/17 10:38:15;;;;;;;0.00;0.00;;;;;;;;;;5115129;28;20051;-80
2023/08/17 10:40:41;;;;;;;0.00;0.00;;;;;;;;;;5113463;28;20030;-79
2023/08/17 10:43:06;;;;;;;0.00;0.00;;;;;;;;;;5114728;28;20049;-80
2023/08/17 10:45:34;;;;;;;0.00;0.00;;;;;;;;;;5115616;28;20453;-79
2023/08/17 10:48:09;;;;;;;0.00;0.00;;;;;;;;;;5080939;28;20031;-80
2023/08/17 10:50:38;;;;;;;0.00;0.00;;;;;;;;;;5115289;28;20031;-79
2023/08/17 10:53:11;;;;;;;0.00;0.00;;;;;;;;;;5097204;28;20046;-79
2023/08/17 10:55:40;;;;;;;0.00;0.00;;;;;;;;;;5097533;28;20035;-80
2023/08/17 10:58:09;;;;;;;0.00;0.00;;;;;;;;;;5097128;28;20047;-79
2023/08/17 11:00:36;;;;;;;0.00;0.00;;;;;;;;;;5114728;27;20121;-80
2023/08/17 11:03:05;;;;;;;0.00;0.00;;;;;;;;;;5080293;28;20043;-79
2023/08/17 11:05:43;;;;;;;0.00;0.00;;;;;;;;;;5115097;28;20524;-79
2023/08/17 11:08:27;;;;;;;0.00;0.00;;;;;;;;;;5113739;28;20070;-79
2023/08/17 11:11:03;;;;;;;0.00;0.00;;;;;;;;;;5114015;28;20127;-79
2023/08/17 11:13:32;;;;;;;0.00;0.00;;;;;;;;;;5115223;28;20024;-79
2023/08/17 11:15:58;;;;;;;0.00;0.00;;;;;;;;;;5096864;28;20034;-79
2023/08/17 11:18:24;;;;;;;0.00;0.00;;;;;;;;;;5096481;28;20032;-79
2023/08/17 11:20:49;;;;;;;0.00;0.00;;;;;;;;;;5096642;28;20028;-81
2023/08/17 11:23:15;;;;;;;0.00;0.00;;;;;;;;;;5096548;28;20042;-79
2023/08/17 11:25:41;;;;;;;0.00;0.00;;;;;;;;;;5096858;28;20055;-80
2023/08/17 11:28:08;;;;;;;0.00;0.00;;;;;;;;;;5096845;28;20548;-80
2023/08/17 11:30:35;;;;;;;0.00;0.00;;;;;;;;;;5079852;28;20039;-79
2023/08/17 11:33:01;;;;;;;0.00;0.00;;;;;;;;;;5113443;28;20027;-79
2023/08/17 11:35:26;;;;;;;0.00;0.00;;;;;;;;;;5114705;28;20084;-80
2023/08/17 11:37:51;;;;;;;0.00;0.00;;;;;;;;;;5096933;28;20035;-80
2023/08/17 11:40:17;;;;;;;0.00;0.00;;;;;;;;;;5114648;28;20076;-79
2023/08/17 11:42:43;;;;;;;0.00;0.00;;;;;;;;;;5096492;28;20118;-80
2023/08/17 11:45:09;;;;;;;0.00;0.00;;;;;;;;;;5079556;28;20532;-79
2023/08/17 11:47:44;;;;;;;0.00;0.00;;;;;;;;;;5096623;28;20131;-80
2023/08/17 11:50:10;;;;;;;0.00;0.00;;;;;;;;;;5097612;28;20122;-80
2023/08/17 11:52:38;;;;;;;0.00;0.00;;;;;;;;;;5115074;28;20451;-80
2023/08/17 11:55:05;;;;;;;0.00;0.00;;;;;;;;;;5118228;28;20360;-80
2023/08/17 11:57:31;;;;;;;0.00;0.00;;;;;;;;;;5117262;28;20040;-79
2023/08/17 11:59:57;;;;;;;0.00;0.00;;;;;;;;;;5100761;28;20118;-79
2023/08/17 12:02:23;;;;;;;0.00;0.00;;;;;;;;;;5118830;28;20380;-80
2023/08/17 12:04:49;;;;;;;0.00;0.00;;;;;;;;;;5118438;28;20035;-80
2023/08/17 12:07:16;;;;;;;0.00;0.00;;;;;;;;;;5100335;28;20415;-78
2023/08/17 12:09:42;;;;;;;0.00;0.00;;;;;;;;;;5134562;27;20122;-79
2023/08/17 12:12:08;;;;;;;0.00;0.00;;;;;;;;;;5083764;28;20507;-81
2023/08/17 12:14:33;;;;;;;0.00;0.00;;;;;;;;;;5117576;28;20072;-80
2023/08/17 12:16:58;;;;;;;0.00;0.00;;;;;;;;;;5117232;28;20034;-80
2023/08/17 12:19:27;;;;;;;0.00;0.00;;;;;;;;;;5118340;28;20027;-80
2023/08/17 12:21:52;;;;;;;0.00;0.00;;;;;;;;;;5117047;28;20365;-81
2023/08/17 12:24:19;;;;;;;0.00;0.00;;;;;;;;;;5116879;28;20044;-81
2023/08/17 12:26:46;;;;;;;0.00;0.00;;;;;;;;;;5116867;28;20031;-82
2023/08/17 12:29:12;;;;;;;0.00;0.00;;;;;;;;;;5099861;28;20051;-80
2023/08/17 12:31:37;;;;;;;0.00;0.00;;;;;;;;;;5100008;28;20468;-80
2023/08/17 12:34:06;;;;;;;0.00;0.00;;;;;;;;;;5117312;28;20024;-80
2023/08/17 12:36:32;;;;;;;0.00;0.00;;;;;;;;;;5116875;28;20034;-80
2023/08/17 12:38:57;;;;;;;0.00;0.00;;;;;;;;;;5116893;28;20032;-80
2023/08/17 12:41:23;;;;;;;0.00;0.00;;;;;;;;;;5116384;28;20122;-80
2023/08/17 12:43:48;;;;;;;0.00;0.00;;;;;;;;;;5099585;28;20072;-80
2023/08/17 12:46:14;;;;;;;0.10;0.00;;;;;;;;;;5099852;28;20329;-81
2023/08/17 12:48:39;;;;;;;0.00;0.00;;;;;;;;;;5099753;28;20028;-80
2023/08/17 12:51:04;;;;;;;0.10;0.03;;;;;;;;;;5116563;28;20023;-81
2023/08/17 12:53:30;;;;;;;0.00;0.00;;;;;;;;;;5082740;28;20026;-79
2023/08/17 12:55:55;;;;;;;0.00;0.00;;;;;;;;;;5117434;28;20127;-80
2023/08/17 12:58:21;;;;;;;0.00;0.00;;;;;;;;;;5116536;28;20399;-81
2023/08/17 13:00:46;;;;;;;0.00;0.00;;;;;;;;;;5116241;28;20030;-80
2023/08/17 13:03:11;;;;;;;0.00;0.00;;;;;;;;;;5099028;28;20034;-81
2023/08/17 13:05:37;;;;;;;0.00;0.00;;;;;;;;;;5098775;28;20032;-79
2023/08/17 13:08:02;;;;;;;0.00;0.00;;;;;;;;;;5117405;28;20024;-80
2023/08/17 13:10:28;;;;;;;0.00;0.00;;;;;;;;;;5098797;28;20031;-80
2023/08/17 13:12:56;;;;;;;0.00;0.00;;;;;;;;;;5117252;28;20046;-80
2023/08/17 13:15:22;;;;;;;0.00;0.00;;;;;;;;;;5116093;28;20034;-80
2023/08/17 13:17:47;;;;;;;0.00;0.00;;;;;;;;;;5117207;28;20027;-79
2023/08/17 13:20:13;;;;;;;0.00;0.00;;;;;;;;;;5098951;28;20099;-81
2023/08/17 13:22:38;;;;;;;0.00;0.00;;;;;;;;;;5117088;28;20368;-80
2023/08/17 13:25:04;;;;;;;0.00;0.00;;;;;;;;;;5115504;28;20114;-80
2023/08/17 13:27:30;;;;;;;0.08;0.00;;;;;;;;;;5117027;28;20043;-81
2023/08/17 13:29:55;;;;;;;0.00;0.00;;;;;;;;;;5115988;28;20491;-80
2023/08/17 13:32:21;;;;;;;0.00;0.00;;;;;;;;;;5115674;28;20028;-80
2023/08/17 13:34:46;;;;;;;0.00;0.00;;;;;;;;;;5115640;28;20040;-80
2023/08/17 13:37:11;;;;;;;0.00;0.00;;;;;;;;;;5115612;28;20337;-81
2023/08/17 13:39:37;;;;;;;0.00;0.00;;;;;;;;;;5081985;28;20027;-81
2023/08/17 13:42:03;;;;;;;0.00;0.00;;;;;;;;;;5115547;28;20360;-80
2023/08/17 13:44:28;;;;;;;0.00;0.00;;;;;;;;;;5098391;28;20032;-80
2023/08/17 13:46:54;;;;;;;0.00;0.00;;;;;;;;;;5116590;28;20081;-80
2023/08/17 13:49:19;;;;;;;0.00;0.00;;;;;;;;;;5116556;28;20024;-80
2023/08/17 13:51:45;;;;;;;0.00;0.00;;;;;;;;;;5115461;28;20069;-80
2023/08/17 13:54:11;;;;;;;0.00;0.00;;;;;;;;;;5116165;28;20052;-80
2023/08/17 13:56:37;;;;;;;0.00;0.00;;;;;;;;;;5114984;28;20092;-80
2023/08/17 13:59:03;;;;;;;0.00;0.00;;;;;;;;;;5116257;28;20023;-79
2023/08/17 14:01:28;;;;;;;0.00;0.00;;;;;;;;;;5116582;28;20019;-79
2023/08/17 14:03:53;;;;;;;0.00;0.00;;;;;;;;;;5081342;28;20077;-79
2023/08/17 14:06:19;;;;;;;0.00;0.00;;;;;;;;;;5114978;28;20034;-79
2023/08/17 14:08:44;;;;;;;0.00;0.00;;;;;;;;;;5114766;28;20019;-81
2023/08/17 14:11:10;;;;;;;0.00;0.00;;;;;;;;;;5114881;28;20015;-81
2023/08/17 14:13:36;;;;;;;0.00;0.00;;;;;;;;;;5115016;28;20028;-80
2023/08/17 14:16:02;;;;;;;0.00;0.00;;;;;;;;;;5115935;28;20057;-80
2023/08/17 14:18:28;;;;;;;0.00;0.00;;;;;;;;;;5114826;28;20125;-79
2023/08/17 14:20:53;;;;;;;0.00;0.00;;;;;;;;;;5115203;28;20124;-80
2023/08/17 14:23:19;;;;;;;0.00;0.00;;;;;;;;;;5114654;28;20669;-80
2023/08/17 14:25:44;;;;;;;0.00;0.00;;;;;;;;;;5115985;27;20023;-80
2023/08/17 14:28:11;;;;;;;0.00;0.00;;;;;;;;;;5114718;28;20031;-81
2023/08/17 14:30:36;;;;;;;0.00;0.00;;;;;;;;;;5114557;28;20028;-81
2023/08/17 14:33:02;;;;;;;0.00;0.00;;;;;;;;;;5097496;28;20027;-79
2023/08/17 14:35:27;;;;;;;0.00;0.00;;;;;;;;;;5115585;28;20035;-79
2023/08/17 14:37:53;;;;;;;0.00;0.00;;;;;;;;;;5114263;28;20027;-79